createdAt,value
2023-02-09T06:30:50.554Z,15.25
2023-02-09T06:33:18.665Z,19.05
2023-02-09T06:35:46.730Z,17.70
2023-02-09T06:38:13.981Z,19.25
2023-02-09T06:40:41.158Z,16.83
2023-02-09T06:43:08.467Z,16.40
2023-02-09T06:45:39.839Z,17.88
2023-02-09T06:48:08.532Z,18.38
2023-02-09T06:50:37.277Z,16.58
2023-02-09T06:53:05.402Z,17.25
2023-02-09T06:55:33.226Z,19.50
2023-02-09T06:58:00.755Z,18.25
2023-02-09T07:00:28.511Z,19.08
2023-02-09T07:02:56.523Z,16.17
2023-02-09T07:05:24.366Z,18.30
2023-02-09T07:07:52.138Z,16.98
2023-02-09T07:10:20.213Z,17.10
2023-02-09T07:12:49.188Z,16.75
2023-02-09T07:15:17.789Z,14.82
2023-02-09T07:17:45.679Z,16.88
2023-02-09T07:20:13.572Z,16.20
2023-02-09T07:22:41.233Z,17.73
2023-02-09T07:25:08.534Z,17.85
2023-02-09T07:27:35.941Z,17.42
2023-02-09T07:30:03.818Z,18.77
2023-02-09T07:32:30.986Z,17.95
2023-02-09T07:34:58.687Z,17.10
2023-02-09T07:37:26.237Z,16.98
2023-02-09T07:39:54.090Z,18.50
2023-02-09T07:42:23.400Z,17.52
2023-02-09T07:44:51.834Z,17.70
2023-02-09T07:47:19.249Z,14.40
2023-02-09T07:49:46.799Z,15.93
2023-02-09T07:52:14.044Z,15.43
2023-02-09T07:54:41.336Z,13.38
2023-02-09T07:57:08.605Z,15.55
2023-02-09T07:59:35.970Z,15.32
2023-02-09T08:02:04.564Z,15.45
2023-02-09T08:04:32.303Z,15.43
2023-02-09T08:07:00.231Z,15.88
2023-02-09T08:09:28.961Z,15.85
2023-02-09T08:12:03.659Z,14.63
2023-02-09T08:14:51.179Z,17.52
2023-02-09T08:17:20.889Z,13.55
2023-02-09T08:19:55.282Z,15.15
2023-02-09T08:22:25.070Z,15.20
2023-02-09T08:24:52.690Z,13.60
2023-02-09T08:27:19.914Z,12.68
2023-02-09T08:29:48.916Z,13.77
2023-02-09T08:32:16.359Z,12.57
2023-02-09T08:34:43.625Z,12.55
2023-02-09T08:37:10.962Z,13.77
2023-02-09T08:39:38.229Z,14.95
2023-02-09T08:42:06.773Z,14.63
2023-02-09T08:44:34.177Z,13.52
2023-02-09T08:47:01.580Z,12.27
2023-02-09T08:49:28.897Z,15.18
2023-02-09T08:51:56.411Z,14.43
2023-02-09T08:54:24.892Z,15.43
2023-02-09T08:56:52.069Z,16.30
2023-02-09T08:59:20.229Z,14.02
2023-02-09T09:01:47.874Z,15.68
2023-02-09T09:04:15.644Z,17.13
2023-02-09T09:06:43.301Z,15.77
2023-02-09T09:09:10.516Z,15.00
2023-02-09T09:11:37.674Z,15.90
2023-02-09T09:14:04.832Z,14.70
2023-02-09T09:16:32.256Z,15.13
2023-02-09T09:18:59.790Z,14.98
2023-02-09T09:21:26.995Z,13.73
2023-02-09T09:23:54.346Z,14.98
2023-02-09T09:26:21.647Z,14.20
2023-02-09T09:28:52.394Z,14.05
2023-02-09T09:31:20.150Z,15.38
2023-02-09T09:33:47.786Z,14.30
2023-02-09T09:36:15.241Z,12.77
2023-02-09T09:38:43.010Z,11.95
2023-02-09T09:41:31.680Z,13.32
2023-02-09T09:44:00.654Z,12.25
2023-02-09T09:46:39.935Z,12.82
2023-02-09T09:49:16.140Z,13.02
2023-02-09T09:51:47.804Z,13.35
2023-02-09T09:54:20.256Z,12.57
2023-02-09T09:56:48.481Z,13.82
2023-02-09T09:59:19.364Z,12.25
2023-02-09T10:01:50.644Z,11.73
2023-02-09T10:04:19.656Z,12.45
2023-02-09T10:06:56.509Z,11.18
2023-02-09T10:09:41.983Z,11.02
2023-02-09T10:12:37.248Z,11.35
2023-02-09T10:15:25.931Z,11.50
2023-02-09T10:17:55.199Z,11.45
2023-02-09T10:20:49.090Z,11.07
2023-02-09T10:23:37.162Z,11.07
2023-02-09T10:26:07.292Z,11.88
2023-02-09T10:28:50.091Z,11.57
2023-02-09T10:31:29.361Z,11.45
2023-02-09T10:34:23.035Z,11.40
2023-02-09T10:36:55.858Z,12.45
2023-02-09T10:39:32.851Z,11.23
2023-02-09T10:42:32.664Z,12.48
2023-02-09T10:45:14.273Z,13.45
2023-02-09T10:47:41.799Z,12.05
2023-02-09T10:50:13.733Z,13.75
2023-02-09T10:53:02.326Z,14.60
2023-02-09T10:55:39.557Z,14.02
2023-02-09T10:58:17.203Z,13.13
2023-02-09T11:00:47.169Z,13.27
2023-02-09T11:03:23.094Z,12.90
2023-02-09T11:06:14.170Z,13.90
2023-02-09T11:08:58.004Z,14.73
2023-02-09T11:11:37.762Z,13.65
2023-02-09T11:14:14.845Z,14.15
2023-02-09T11:16:50.761Z,14.07
2023-02-09T11:19:48.614Z,14.55
2023-02-09T11:22:31.421Z,15.98
2023-02-09T11:25:18.490Z,14.20
2023-02-09T11:28:03.206Z,12.90
2023-02-09T11:30:54.862Z,14.77
2023-02-09T11:33:27.858Z,14.15
2023-02-09T11:39:02.098Z,13.43
2023-02-09T11:42:03.870Z,13.38
2023-02-09T11:44:52.658Z,14.32
2023-02-09T11:47:59.129Z,13.10
2023-02-09T11:50:37.265Z,14.93
2023-02-09T11:53:29.369Z,13.20
2023-02-09T11:55:59.367Z,12.88
2023-02-09T11:58:42.482Z,13.88
2023-02-09T12:01:17.230Z,13.25
2023-02-09T12:04:04.929Z,15.65
2023-02-09T12:06:43.047Z,15.75
2023-02-09T12:09:21.302Z,14.52
2023-02-09T12:12:15.278Z,15.55
2023-02-09T12:14:55.532Z,16.13
2023-02-09T12:17:53.184Z,14.63
2023-02-09T12:20:24.469Z,14.05
2023-02-09T12:23:14.835Z,15.50
2023-02-09T12:25:51.647Z,15.45
2023-02-09T12:28:28.469Z,16.55
2023-02-09T12:30:58.772Z,15.27
2023-02-09T12:33:26.839Z,14.35
2023-02-09T12:36:05.730Z,15.65
2023-02-09T12:38:56.817Z,16.88
2023-02-09T12:41:28.196Z,15.73
2023-02-09T12:44:10.682Z,11.40
2023-02-09T12:46:54.519Z,12.88
2023-02-09T12:49:32.347Z,16.10
2023-02-09T12:52:00.585Z,16.27
2023-02-09T12:54:40.835Z,17.30
2023-02-09T12:57:20.610Z,16.58
2023-02-09T12:59:52.805Z,17.70
2023-02-09T13:02:46.656Z,14.88
2023-02-09T13:05:14.791Z,16.65
2023-02-09T13:08:07.157Z,17.20
2023-02-09T13:11:02.389Z,14.68
2023-02-09T13:13:48.018Z,13.80
2023-02-09T13:16:30.207Z,14.02
2023-02-09T13:19:14.961Z,14.67
2023-02-09T13:22:11.015Z,14.50
2023-02-09T13:24:44.912Z,12.02
2023-02-09T13:27:23.142Z,11.40
2023-02-09T13:29:53.431Z,11.88
2023-02-09T13:32:41.384Z,11.88
2023-02-09T13:35:23.524Z,11.80
2023-02-09T13:38:03.502Z,13.40
2023-02-09T13:40:33.916Z,12.20
2023-02-09T13:43:18.012Z,11.48
2023-02-09T13:45:52.729Z,10.77
2023-02-09T13:48:34.002Z,10.32
2023-02-09T13:51:04.349Z,9.93
2023-02-09T13:53:32.062Z,11.75
2023-02-09T13:56:00.630Z,11.25
2023-02-09T13:58:31.946Z,12.48
2023-02-09T14:01:07.714Z,13.43
2023-02-09T14:03:59.094Z,13.25
2023-02-09T14:06:56.355Z,14.80
2023-02-09T14:09:36.332Z,12.60
2023-02-09T14:12:43.475Z,13.20
2023-02-09T14:15:35.980Z,14.95
2023-02-09T14:18:30.651Z,16.13
2023-02-09T14:21:03.419Z,15.85
2023-02-09T14:26:33.282Z,14.55
2023-02-09T14:29:16.921Z,13.93
2023-02-09T14:31:56.753Z,15.10
2023-02-09T14:34:27.089Z,14.93
2023-02-09T14:36:57.056Z,15.60
2023-02-09T14:39:24.580Z,13.10
2023-02-09T14:41:57.746Z,14.80
2023-02-09T14:44:25.841Z,14.00
2023-02-09T14:46:53.439Z,13.73
2023-02-09T14:49:21.541Z,12.07
2023-02-09T14:51:51.414Z,12.02
2023-02-09T14:54:24.203Z,10.27
2023-02-09T14:56:53.731Z,10.75
2023-02-09T14:59:22.115Z,11.55
2023-02-09T15:01:52.704Z,11.35
2023-02-09T15:04:20.464Z,11.55
2023-02-09T15:06:53.222Z,12.55
2023-02-09T15:09:29.141Z,13.05
2023-02-09T15:12:05.668Z,13.25
2023-02-09T15:14:46.694Z,11.75
2023-02-09T15:17:19.427Z,12.23
2023-02-09T15:19:47.126Z,11.77
2023-02-09T15:22:16.189Z,11.88
2023-02-09T15:24:45.358Z,12.48
2023-02-09T15:27:32.449Z,13.38
2023-02-09T15:30:03.006Z,13.07
2023-02-09T15:32:31.414Z,13.02
2023-02-09T15:34:58.562Z,15.75
2023-02-09T15:37:36.844Z,14.45
2023-02-09T15:40:39.663Z,12.88
2023-02-09T15:43:37.525Z,16.55
2023-02-09T15:46:24.010Z,12.73
2023-02-09T15:48:51.339Z,13.43
2023-02-09T15:51:19.035Z,13.15
2023-02-09T15:53:47.151Z,13.45
2023-02-09T15:56:15.361Z,12.20
2023-02-09T15:58:44.914Z,12.93
2023-02-09T16:01:17.357Z,11.63
2023-02-09T16:03:44.795Z,12.20
2023-02-09T16:06:27.189Z,13.85
2023-02-09T16:08:55.824Z,12.43
2023-02-09T16:11:32.856Z,14.10
2023-02-09T16:14:01.433Z,13.15
2023-02-09T16:16:30.564Z,14.20
2023-02-09T16:18:57.734Z,13.45
2023-02-09T16:21:33.410Z,13.32
2023-02-09T16:24:03.576Z,14.70
2023-02-09T16:26:32.712Z,12.38
2023-02-09T16:29:00.200Z,14.60
2023-02-09T16:31:27.851Z,13.75
2023-02-09T16:33:55.222Z,15.70
2023-02-09T16:36:26.437Z,14.82
2023-02-09T16:38:53.989Z,14.48
2023-02-09T16:41:41.295Z,13.02
2023-02-09T16:44:19.417Z,13.95
2023-02-09T16:46:50.186Z,14.20
2023-02-09T16:49:40.214Z,12.38
2023-02-09T16:52:18.472Z,11.35
2023-02-09T16:54:52.213Z,12.75
2023-02-09T16:57:23.088Z,13.63
2023-02-09T16:59:51.557Z,12.52
